sensor_id;sensor_type;location;lat;lon;timestamp;temperature;humidity
64858;SHT30;51335;51.148;6.950;2023-07-30T00:00:17;15.72;99.99
64858;SHT30;51335;51.148;6.950;2023-07-30T00:00:50;15.73;99.99
64858;SHT30;51335;51.148;6.950;2023-07-30T00:01:20;15.70;99.99
64858;SHT30;51335;51.148;6.950;2023-07-30T00:01:51;15.69;99.99
64858;SHT30;51335;51.148;6.950;2023-07-30T00:02:21;15.69;99.99
64858;SHT30;51335;51.148;6.950;2023-07-30T00:02:51;15.66;99.99
64858;SHT30;51335;51.148;6.950;2023-07-30T00:03:21;15.62;99.99
64858;SHT30;51335;51.148;6.950;2023-07-30T00:03:52;15.66;99.99
64858;SHT30;51335;51.148;6.950;2023-07-30T00:04:22;15.63;99.99
64858;SHT30;51335;51.148;6.950;2023-07-30T00:04:52;15.62;99.99
64858;SHT30;51335;51.148;6.950;2023-07-30T00:05:22;15.62;99.99
64858;SHT30;51335;51.148;6.950;2023-07-30T00:05:54;15.61;99.99
64858;SHT30;51335;51.148;6.950;2023-07-30T00:06:25;15.56;99.99
64858;SHT30;51335;51.148;6.950;2023-07-30T00:06:55;15.56;99.99
64858;SHT30;51335;51.148;6.950;2023-07-30T00:07:25;15.56;99.99
64858;SHT30;51335;51.148;6.950;2023-07-30T00:07:55;15.56;99.99
64858;SHT30;51335;51.148;6.950;2023-07-30T00:08:26;15.55;99.99
64858;SHT30;51335;51.148;6.950;2023-07-30T00:08:56;15.51;99.99
64858;SHT30;51335;51.148;6.950;2023-07-30T00:09:26;15.48;99.99
64858;SHT30;51335;51.148;6.950;2023-07-30T00:09:56;15.45;99.99
64858;SHT30;51335;51.148;6.950;2023-07-30T00:10:27;15.46;99.99
64858;SHT30;51335;51.148;6.950;2023-07-30T00:10:57;15.43;99.99
64858;SHT30;51335;51.148;6.950;2023-07-30T00:11:28;15.41;99.99
64858;SHT30;51335;51.148;6.950;2023-07-30T00:11:58;15.39;99.99
64858;SHT30;51335;51.148;6.950;2023-07-30T00:12:28;15.38;99.99
64858;SHT30;51335;51.148;6.950;2023-07-30T00:12:58;15.35;99.99
64858;SHT30;51335;51.148;6.950;2023-07-30T00:13:29;15.32;99.99
64858;SHT30;51335;51.148;6.950;2023-07-30T00:13:59;15.31;99.99
64858;SHT30;51335;51.148;6.950;2023-07-30T00:14:29;15.30;99.99
64858;SHT30;51335;51.148;6.950;2023-07-30T00:14:59;15.25;99.99
64858;SHT30;51335;51.148;6.950;2023-07-30T00:15:30;15.25;99.99
64858;SHT30;51335;51.148;6.950;2023-07-30T00:16:00;15.24;99.99
64858;SHT30;51335;51.148;6.950;2023-07-30T00:16:30;15.21;99.99
64858;SHT30;51335;51.148;6.950;2023-07-30T00:17:01;15.24;99.99
64858;SHT30;51335;51.148;6.950;2023-07-30T00:17:31;15.22;99.99
64858;SHT30;51335;51.148;6.950;2023-07-30T00:18:01;15.21;99.99
64858;SHT30;51335;51.148;6.950;2023-07-30T00:18:32;15.20;99.99
64858;SHT30;51335;51.148;6.950;2023-07-30T00:19:02;15.17;99.99
64858;SHT30;51335;51.148;6.950;2023-07-30T00:19:32;15.14;99.99
64858;SHT30;51335;51.148;6.950;2023-07-30T00:20:03;15.10;99.99
64858;SHT30;51335;51.148;6.950;2023-07-30T00:20:34;15.12;99.99
64858;SHT30;51335;51.148;6.950;2023-07-30T00:21:04;15.12;99.99
64858;SHT30;51335;51.148;6.950;2023-07-30T00:21:35;15.08;99.99
64858;SHT30;51335;51.148;6.950;2023-07-30T00:22:05;15.05;99.99
64858;SHT30;51335;51.148;6.950;2023-07-30T00:22:35;15.03;99.99
64858;SHT30;51335;51.148;6.950;2023-07-30T00:23:06;15.03;99.99
64858;SHT30;51335;51.148;6.950;2023-07-30T00:23:36;15.03;99.99
64858;SHT30;51335;51.148;6.950;2023-07-30T00:24:06;15.01;99.99
64858;SHT30;51335;51.148;6.950;2023-07-30T00:24:36;15.03;99.99
64858;SHT30;51335;51.148;6.950;2023-07-30T00:25:07;14.98;99.99
64858;SHT30;51335;51.148;6.950;2023-07-30T00:25:37;15.00;99.99
64858;SHT30;51335;51.148;6.950;2023-07-30T00:26:08;14.97;99.99
64858;SHT30;51335;51.148;6.950;2023-07-30T00:26:38;15.00;99.99
64858;SHT30;51335;51.148;6.950;2023-07-30T00:27:08;14.98;99.99
64858;SHT30;51335;51.148;6.950;2023-07-30T00:27:39;14.97;99.99
64858;SHT30;51335;51.148;6.950;2023-07-30T00:28:09;14.94;99.99
64858;SHT30;51335;51.148;6.950;2023-07-30T00:28:39;14.93;99.99
64858;SHT30;51335;51.148;6.950;2023-07-30T00:29:09;14.94;99.99
64858;SHT30;51335;51.148;6.950;2023-07-30T00:29:40;14.93;99.99
64858;SHT30;51335;51.148;6.950;2023-07-30T00:30:10;14.93;99.99
64858;SHT30;51335;51.148;6.950;2023-07-30T00:30:41;14.95;99.99
64858;SHT30;51335;51.148;6.950;2023-07-30T00:31:11;14.91;99.99
64858;SHT30;51335;51.148;6.950;2023-07-30T00:31:41;14.90;99.99
64858;SHT30;51335;51.148;6.950;2023-07-30T00:32:11;14.91;99.99
64858;SHT30;51335;51.148;6.950;2023-07-30T00:32:42;14.93;99.99
64858;SHT30;51335;51.148;6.950;2023-07-30T00:33:12;14.93;99.99
64858;SHT30;51335;51.148;6.950;2023-07-30T00:33:42;14.88;99.99
64858;SHT30;51335;51.148;6.950;2023-07-30T00:34:12;14.90;99.99
64858;SHT30;51335;51.148;6.950;2023-07-30T00:34:43;14.90;99.99
64858;SHT30;51335;51.148;6.950;2023-07-30T00:35:14;14.90;99.99
64858;SHT30;51335;51.148;6.950;2023-07-30T00:35:44;14.90;99.99
64858;SHT30;51335;51.148;6.950;2023-07-30T00:36:14;14.90;99.99
64858;SHT30;51335;51.148;6.950;2023-07-30T00:36:44;14.90;99.99
64858;SHT30;51335;51.148;6.950;2023-07-30T00:37:15;14.90;99.99
64858;SHT30;51335;51.148;6.950;2023-07-30T00:37:45;14.90;99.99
64858;SHT30;51335;51.148;6.950;2023-07-30T00:38:15;14.87;99.99
64858;SHT30;51335;51.148;6.950;2023-07-30T00:38:45;14.87;99.99
64858;SHT30;51335;51.148;6.950;2023-07-30T00:39:16;14.87;99.99
64858;SHT30;51335;51.148;6.950;2023-07-30T00:39:46;14.88;99.99
64858;SHT30;51335;51.148;6.950;2023-07-30T00:40:17;14.87;99.99
64858;SHT30;51335;51.148;6.950;2023-07-30T00:40:48;14.88;99.99
64858;SHT30;51335;51.148;6.950;2023-07-30T00:41:18;14.88;99.99
64858;SHT30;51335;51.148;6.950;2023-07-30T00:41:48;14.84;99.99
64858;SHT30;51335;51.148;6.950;2023-07-30T00:42:18;14.85;99.99
64858;SHT30;51335;51.148;6.950;2023-07-30T00:42:49;14.85;99.99
64858;SHT30;51335;51.148;6.950;2023-07-30T00:43:19;14.85;99.99
64858;SHT30;51335;51.148;6.950;2023-07-30T00:43:49;14.85;99.99
64858;SHT30;51335;51.148;6.950;2023-07-30T00:44:19;14.85;99.99
64858;SHT30;51335;51.148;6.950;2023-07-30T00:44:50;14.87;99.99
64858;SHT30;51335;51.148;6.950;2023-07-30T00:45:20;14.87;99.99
64858;SHT30;51335;51.148;6.950;2023-07-30T00:45:50;14.87;99.99
64858;SHT30;51335;51.148;6.950;2023-07-30T00:46:21;14.85;99.99
64858;SHT30;51335;51.148;6.950;2023-07-30T00:46:51;14.87;99.99
64858;SHT30;51335;51.148;6.950;2023-07-30T00:47:22;14.87;99.99
64858;SHT30;51335;51.148;6.950;2023-07-30T00:47:52;14.90;99.99
64858;SHT30;51335;51.148;6.950;2023-07-30T00:48:22;14.90;99.99
64858;SHT30;51335;51.148;6.950;2023-07-30T00:48:53;14.87;99.99
64858;SHT30;51335;51.148;6.950;2023-07-30T00:49:23;14.90;99.99
64858;SHT30;51335;51.148;6.950;2023-07-30T00:49:53;14.90;99.99
64858;SHT30;51335;51.148;6.950;2023-07-30T00:50:24;14.88;99.99
64858;SHT30;51335;51.148;6.950;2023-07-30T00:50:55;14.90;99.99
64858;SHT30;51335;51.148;6.950;2023-07-30T00:51:26;14.95;99.99
64858;SHT30;51335;51.148;6.950;2023-07-30T00:51:57;14.93;99.99
64858;SHT30;51335;51.148;6.950;2023-07-30T00:52:27;14.98;99.99
64858;SHT30;51335;51.148;6.950;2023-07-30T00:52:58;14.95;99.99
64858;SHT30;51335;51.148;6.950;2023-07-30T00:53:29;15.00;99.99
64858;SHT30;51335;51.148;6.950;2023-07-30T00:54:00;15.00;99.99
64858;SHT30;51335;51.148;6.950;2023-07-30T00:54:30;14.98;99.99
64858;SHT30;51335;51.148;6.950;2023-07-30T00:55:02;15.00;99.99
64858;SHT30;51335;51.148;6.950;2023-07-30T00:55:32;15.03;99.99
64858;SHT30;51335;51.148;6.950;2023-07-30T00:56:03;15.01;99.99
64858;SHT30;51335;51.148;6.950;2023-07-30T00:56:34;15.01;99.99
64858;SHT30;51335;51.148;6.950;2023-07-30T00:57:04;15.07;99.99
64858;SHT30;51335;51.148;6.950;2023-07-30T00:57:36;15.07;99.99
64858;SHT30;51335;51.148;6.950;2023-07-30T00:58:07;15.07;99.99
64858;SHT30;51335;51.148;6.950;2023-07-30T00:58:38;15.10;99.99
64858;SHT30;51335;51.148;6.950;2023-07-30T00:59:08;15.08;99.99
64858;SHT30;51335;51.148;6.950;2023-07-30T00:59:38;15.08;99.99
64858;SHT30;51335;51.148;6.950;2023-07-30T01:00:09;15.10;99.99
64858;SHT30;51335;51.148;6.950;2023-07-30T01:00:40;15.11;99.99
64858;SHT30;51335;51.148;6.950;2023-07-30T01:01:11;15.11;99.99
64858;SHT30;51335;51.148;6.950;2023-07-30T01:01:42;15.11;99.99
64858;SHT30;51335;51.148;6.950;2023-07-30T01:02:12;15.12;99.99
64858;SHT30;51335;51.148;6.950;2023-07-30T01:02:43;15.12;99.99
64858;SHT30;51335;51.148;6.950;2023-07-30T01:03:14;15.17;99.99
64858;SHT30;51335;51.148;6.950;2023-07-30T01:03:44;15.15;99.99
64858;SHT30;51335;51.148;6.950;2023-07-30T01:04:15;15.20;99.99
64858;SHT30;51335;51.148;6.950;2023-07-30T01:04:45;15.21;99.99
64858;SHT30;51335;51.148;6.950;2023-07-30T01:05:16;15.22;99.99
64858;SHT30;51335;51.148;6.950;2023-07-30T01:05:46;15.22;99.99
64858;SHT30;51335;51.148;6.950;2023-07-30T01:06:17;15.25;99.99
64858;SHT30;51335;51.148;6.950;2023-07-30T01:06:48;15.25;99.99
64858;SHT30;51335;51.148;6.950;2023-07-30T01:07:18;15.28;99.99
64858;SHT30;51335;51.148;6.950;2023-07-30T01:07:48;15.31;99.99
64858;SHT30;51335;51.148;6.950;2023-07-30T01:08:19;15.35;99.99
64858;SHT30;51335;51.148;6.950;2023-07-30T01:08:49;15.36;99.99
64858;SHT30;51335;51.148;6.950;2023-07-30T01:09:20;15.38;99.99
64858;SHT30;51335;51.148;6.950;2023-07-30T01:09:50;15.38;99.99
64858;SHT30;51335;51.148;6.950;2023-07-30T01:10:21;15.38;99.99
64858;SHT30;51335;51.148;6.950;2023-07-30T01:10:52;15.41;99.99
64858;SHT30;51335;51.148;6.950;2023-07-30T01:11:23;15.43;99.99
64858;SHT30;51335;51.148;6.950;2023-07-30T01:11:54;15.42;99.99
64858;SHT30;51335;51.148;6.950;2023-07-30T01:12:25;15.43;99.99
64858;SHT30;51335;51.148;6.950;2023-07-30T01:12:56;15.45;99.99
64858;SHT30;51335;51.148;6.950;2023-07-30T01:13:27;15.46;99.99
64858;SHT30;51335;51.148;6.950;2023-07-30T01:13:59;15.48;99.99
64858;SHT30;51335;51.148;6.950;2023-07-30T01:14:30;15.48;99.99
64858;SHT30;51335;51.148;6.950;2023-07-30T01:15:01;15.49;99.99
64858;SHT30;51335;51.148;6.950;2023-07-30T01:15:32;15.51;99.99
64858;SHT30;51335;51.148;6.950;2023-07-30T01:16:03;15.52;99.99
64858;SHT30;51335;51.148;6.950;2023-07-30T01:16:34;15.53;99.99
64858;SHT30;51335;51.148;6.950;2023-07-30T01:17:04;15.52;99.99
64858;SHT30;51335;51.148;6.950;2023-07-30T01:17:35;15.55;99.99
64858;SHT30;51335;51.148;6.950;2023-07-30T01:18:06;15.55;99.99
64858;SHT30;51335;51.148;6.950;2023-07-30T01:18:36;15.53;99.99
64858;SHT30;51335;51.148;6.950;2023-07-30T01:19:06;15.55;99.99
64858;SHT30;51335;51.148;6.950;2023-07-30T01:19:37;15.56;99.99
64858;SHT30;51335;51.148;6.950;2023-07-30T01:20:07;15.58;99.99
64858;SHT30;51335;51.148;6.950;2023-07-30T01:20:38;15.59;99.99
64858;SHT30;51335;51.148;6.950;2023-07-30T01:21:08;15.58;99.99
64858;SHT30;51335;51.148;6.950;2023-07-30T01:21:39;15.65;99.99
64858;SHT30;51335;51.148;6.950;2023-07-30T01:22:09;15.65;99.99
64858;SHT30;51335;51.148;6.950;2023-07-30T01:22:39;15.67;99.99
64858;SHT30;51335;51.148;6.950;2023-07-30T01:23:09;15.72;99.99
64858;SHT30;51335;51.148;6.950;2023-07-30T01:23:40;15.72;99.99
64858;SHT30;51335;51.148;6.950;2023-07-30T01:24:10;15.69;99.99
64858;SHT30;51335;51.148;6.950;2023-07-30T01:24:40;15.69;99.99
64858;SHT30;51335;51.148;6.950;2023-07-30T01:25:10;15.69;99.99
64858;SHT30;51335;51.148;6.950;2023-07-30T01:25:42;15.69;99.99
64858;SHT30;51335;51.148;6.950;2023-07-30T01:26:19;15.69;99.99
64858;SHT30;51335;51.148;6.950;2023-07-30T01:26:56;15.65;99.99
64858;SHT30;51335;51.148;6.950;2023-07-30T01:27:30;15.65;99.99
64858;SHT30;51335;51.148;6.950;2023-07-30T01:28:01;15.65;99.99
64858;SHT30;51335;51.148;6.950;2023-07-30T01:28:37;15.67;99.99
64858;SHT30;51335;51.148;6.950;2023-07-30T01:29:35;15.66;99.99
64858;SHT30;51335;51.148;6.950;2023-07-30T01:30:22;15.67;99.99
64858;SHT30;51335;51.148;6.950;2023-07-30T01:30:54;15.69;99.99
64858;SHT30;51335;51.148;6.950;2023-07-30T01:31:26;15.69;99.99
64858;SHT30;51335;51.148;6.950;2023-07-30T01:32:02;15.70;99.99
64858;SHT30;51335;51.148;6.950;2023-07-30T01:32:34;15.70;99.99
64858;SHT30;51335;51.148;6.950;2023-07-30T01:33:06;15.69;99.99
64858;SHT30;51335;51.148;6.950;2023-07-30T01:33:38;15.73;99.99
64858;SHT30;51335;51.148;6.950;2023-07-30T01:34:10;15.72;99.99
64858;SHT30;51335;51.148;6.950;2023-07-30T01:34:43;15.76;99.99
64858;SHT30;51335;51.148;6.950;2023-07-30T01:35:15;15.73;99.99
64858;SHT30;51335;51.148;6.950;2023-07-30T01:35:45;15.74;99.99
64858;SHT30;51335;51.148;6.950;2023-07-30T01:36:16;15.74;99.99
64858;SHT30;51335;51.148;6.950;2023-07-30T01:36:46;15.73;99.99
64858;SHT30;51335;51.148;6.950;2023-07-30T01:37:18;15.74;99.99
64858;SHT30;51335;51.148;6.950;2023-07-30T01:37:50;15.76;99.99
64858;SHT30;51335;51.148;6.950;2023-07-30T01:38:21;15.79;99.99
64858;SHT30;51335;51.148;6.950;2023-07-30T01:38:52;15.76;99.99
64858;SHT30;51335;51.148;6.950;2023-07-30T01:39:24;15.78;99.99
64858;SHT30;51335;51.148;6.950;2023-07-30T01:39:55;15.78;99.99
64858;SHT30;51335;51.148;6.950;2023-07-30T01:40:26;15.82;99.99
64858;SHT30;51335;51.148;6.950;2023-07-30T01:40:56;15.80;99.99
64858;SHT30;51335;51.148;6.950;2023-07-30T01:41:26;15.80;99.99
64858;SHT30;51335;51.148;6.950;2023-07-30T01:41:57;15.82;99.99
64858;SHT30;51335;51.148;6.950;2023-07-30T01:42:30;15.80;99.99
64858;SHT30;51335;51.148;6.950;2023-07-30T01:43:01;15.83;99.99
64858;SHT30;51335;51.148;6.950;2023-07-30T01:43:32;15.83;99.99
64858;SHT30;51335;51.148;6.950;2023-07-30T01:44:02;15.86;99.99
64858;SHT30;51335;51.148;6.950;2023-07-30T01:44:33;15.87;99.99
64858;SHT30;51335;51.148;6.950;2023-07-30T01:45:04;15.87;99.99
64858;SHT30;51335;51.148;6.950;2023-07-30T01:45:35;15.87;99.99
64858;SHT30;51335;51.148;6.950;2023-07-30T01:46:05;15.90;99.99
64858;SHT30;51335;51.148;6.950;2023-07-30T01:46:36;15.87;99.99
64858;SHT30;51335;51.148;6.950;2023-07-30T01:47:06;15.87;99.99
64858;SHT30;51335;51.148;6.950;2023-07-30T01:47:36;15.91;99.99
64858;SHT30;51335;51.148;6.950;2023-07-30T01:48:06;15.87;99.99
64858;SHT30;51335;51.148;6.950;2023-07-30T01:48:37;15.89;99.99
64858;SHT30;51335;51.148;6.950;2023-07-30T01:49:07;15.90;99.99
64858;SHT30;51335;51.148;6.950;2023-07-30T01:49:37;15.94;99.99
64858;SHT30;51335;51.148;6.950;2023-07-30T01:50:08;15.94;99.99
64858;SHT30;51335;51.148;6.950;2023-07-30T01:50:38;15.94;99.99
64858;SHT30;51335;51.148;6.950;2023-07-30T01:51:08;15.94;99.99
64858;SHT30;51335;51.148;6.950;2023-07-30T01:51:39;15.94;99.99
64858;SHT30;51335;51.148;6.950;2023-07-30T01:52:09;15.96;99.99
64858;SHT30;51335;51.148;6.950;2023-07-30T01:52:39;15.97;99.99
64858;SHT30;51335;51.148;6.950;2023-07-30T01:53:09;15.96;99.99
64858;SHT30;51335;51.148;6.950;2023-07-30T01:53:40;15.97;99.99
64858;SHT30;51335;51.148;6.950;2023-07-30T01:54:10;15.97;99.99
64858;SHT30;51335;51.148;6.950;2023-07-30T01:54:40;15.99;99.99
64858;SHT30;51335;51.148;6.950;2023-07-30T01:55:10;16.00;99.99
64858;SHT30;51335;51.148;6.950;2023-07-30T01:55:41;16.00;99.99
64858;SHT30;51335;51.148;6.950;2023-07-30T01:56:11;16.01;99.99
64858;SHT30;51335;51.148;6.950;2023-07-30T01:56:41;16.01;99.99
64858;SHT30;51335;51.148;6.950;2023-07-30T01:57:11;16.01;99.99
64858;SHT30;51335;51.148;6.950;2023-07-30T01:57:42;16.04;99.99
64858;SHT30;51335;51.148;6.950;2023-07-30T01:58:13;16.03;99.99
64858;SHT30;51335;51.148;6.950;2023-07-30T01:58:43;16.03;99.99
64858;SHT30;51335;51.148;6.950;2023-07-30T01:59:13;16.01;99.99
64858;SHT30;51335;51.148;6.950;2023-07-30T01:59:43;16.03;99.99
64858;SHT30;51335;51.148;6.950;2023-07-30T02:00:14;16.04;99.99
64858;SHT30;51335;51.148;6.950;2023-07-30T02:00:45;16.04;99.99
64858;SHT30;51335;51.148;6.950;2023-07-30T02:01:15;16.07;99.99
64858;SHT30;51335;51.148;6.950;2023-07-30T02:01:45;16.06;99.99
64858;SHT30;51335;51.148;6.950;2023-07-30T02:02:16;16.06;99.99
64858;SHT30;51335;51.148;6.950;2023-07-30T02:02:46;16.06;99.99
64858;SHT30;51335;51.148;6.950;2023-07-30T02:03:16;16.10;99.99
64858;SHT30;51335;51.148;6.950;2023-07-30T02:03:46;16.09;99.99
64858;SHT30;51335;51.148;6.950;2023-07-30T02:04:17;16.10;99.99
64858;SHT30;51335;51.148;6.950;2023-07-30T02:04:47;16.13;99.99
64858;SHT30;51335;51.148;6.950;2023-07-30T02:05:17;16.13;99.99
64858;SHT30;51335;51.148;6.950;2023-07-30T02:05:48;16.16;99.99
64858;SHT30;51335;51.148;6.950;2023-07-30T02:06:18;16.14;99.99
64858;SHT30;51335;51.148;6.950;2023-07-30T02:06:48;16.16;99.99
64858;SHT30;51335;51.148;6.950;2023-07-30T02:07:18;16.17;99.99
64858;SHT30;51335;51.148;6.950;2023-07-30T02:07:49;16.17;99.99
64858;SHT30;51335;51.148;6.950;2023-07-30T02:08:19;16.14;99.99
64858;SHT30;51335;51.148;6.950;2023-07-30T02:08:49;16.16;99.99
64858;SHT30;51335;51.148;6.950;2023-07-30T02:09:19;16.13;99.99
64858;SHT30;51335;51.148;6.950;2023-07-30T02:09:50;16.14;99.99
64858;SHT30;51335;51.148;6.950;2023-07-30T02:10:20;16.14;99.99
64858;SHT30;51335;51.148;6.950;2023-07-30T02:10:59;16.16;99.99
64858;SHT30;51335;51.148;6.950;2023-07-30T02:11:29;16.17;99.99
64858;SHT30;51335;51.148;6.950;2023-07-30T02:12:00;16.16;99.99
64858;SHT30;51335;51.148;6.950;2023-07-30T02:12:30;16.17;99.99
64858;SHT30;51335;51.148;6.950;2023-07-30T02:13:00;16.14;99.99
64858;SHT30;51335;51.148;6.950;2023-07-30T02:13:31;16.14;99.99
64858;SHT30;51335;51.148;6.950;2023-07-30T02:14:01;16.18;99.99
64858;SHT30;51335;51.148;6.950;2023-07-30T02:14:31;16.16;99.99
64858;SHT30;51335;51.148;6.950;2023-07-30T02:15:02;16.16;99.99
64858;SHT30;51335;51.148;6.950;2023-07-30T02:15:32;16.17;99.99
64858;SHT30;51335;51.148;6.950;2023-07-30T02:16:03;16.20;99.99
64858;SHT30;51335;51.148;6.950;2023-07-30T02:16:33;16.21;99.99
64858;SHT30;51335;51.148;6.950;2023-07-30T02:17:04;16.21;99.99
64858;SHT30;51335;51.148;6.950;2023-07-30T02:17:34;16.22;99.99
64858;SHT30;51335;51.148;6.950;2023-07-30T02:18:04;16.21;99.99
64858;SHT30;51335;51.148;6.950;2023-07-30T02:18:34;16.25;99.99
64858;SHT30;51335;51.148;6.950;2023-07-30T02:19:05;16.27;99.99
64858;SHT30;51335;51.148;6.950;2023-07-30T02:19:35;16.24;99.99
64858;SHT30;51335;51.148;6.950;2023-07-30T02:20:06;16.25;99.99
64858;SHT30;51335;51.148;6.950;2023-07-30T02:20:36;16.24;99.99
64858;SHT30;51335;51.148;6.950;2023-07-30T02:21:06;16.22;99.99
64858;SHT30;51335;51.148;6.950;2023-07-30T02:21:37;16.22;99.99
64858;SHT30;51335;51.148;6.950;2023-07-30T02:22:07;16.24;99.99
64858;SHT30;51335;51.148;6.950;2023-07-30T02:22:37;16.24;99.99
64858;SHT30;51335;51.148;6.950;2023-07-30T02:23:08;16.24;99.99
64858;SHT30;51335;51.148;6.950;2023-07-30T02:23:38;16.22;99.99
64858;SHT30;51335;51.148;6.950;2023-07-30T02:24:09;16.22;99.99
64858;SHT30;51335;51.148;6.950;2023-07-30T02:24:40;16.21;99.99
64858;SHT30;51335;51.148;6.950;2023-07-30T02:25:10;16.24;99.99
64858;SHT30;51335;51.148;6.950;2023-07-30T02:25:40;16.22;99.99
64858;SHT30;51335;51.148;6.950;2023-07-30T02:26:10;16.25;99.99
64858;SHT30;51335;51.148;6.950;2023-07-30T02:26:41;16.25;99.99
64858;SHT30;51335;51.148;6.950;2023-07-30T02:27:11;16.25;99.99
64858;SHT30;51335;51.148;6.950;2023-07-30T02:27:41;16.25;99.99
64858;SHT30;51335;51.148;6.950;2023-07-30T02:28:11;16.25;99.99
64858;SHT30;51335;51.148;6.950;2023-07-30T02:28:42;16.30;99.99
64858;SHT30;51335;51.148;6.950;2023-07-30T02:29:12;16.25;99.99
64858;SHT30;51335;51.148;6.950;2023-07-30T02:29:42;16.24;99.99
64858;SHT30;51335;51.148;6.950;2023-07-30T02:30:12;16.24;99.99
64858;SHT30;51335;51.148;6.950;2023-07-30T02:30:43;16.22;99.99
64858;SHT30;51335;51.148;6.950;2023-07-30T02:31:13;16.22;99.99
64858;SHT30;51335;51.148;6.950;2023-07-30T02:31:43;16.22;99.99
64858;SHT30;51335;51.148;6.950;2023-07-30T02:32:14;16.21;99.99
64858;SHT30;51335;51.148;6.950;2023-07-30T02:32:44;16.18;99.99
64858;SHT30;51335;51.148;6.950;2023-07-30T02:33:14;16.18;99.99
64858;SHT30;51335;51.148;6.950;2023-07-30T02:33:44;16.18;99.99
64858;SHT30;51335;51.148;6.950;2023-07-30T02:34:15;16.20;99.99
64858;SHT30;51335;51.148;6.950;2023-07-30T02:34:45;16.17;99.99
64858;SHT30;51335;51.148;6.950;2023-07-30T02:35:15;16.16;99.99
64858;SHT30;51335;51.148;6.950;2023-07-30T02:35:45;16.17;99.99
64858;SHT30;51335;51.148;6.950;2023-07-30T02:36:16;16.17;99.99
64858;SHT30;51335;51.148;6.950;2023-07-30T02:36:46;16.22;99.99
64858;SHT30;51335;51.148;6.950;2023-07-30T02:37:16;16.24;99.99
64858;SHT30;51335;51.148;6.950;2023-07-30T02:37:46;16.31;99.99
64858;SHT30;51335;51.148;6.950;2023-07-30T02:38:17;16.31;99.99
64858;SHT30;51335;51.148;6.950;2023-07-30T02:38:47;16.27;99.99
64858;SHT30;51335;51.148;6.950;2023-07-30T02:39:17;16.24;99.99
64858;SHT30;51335;51.148;6.950;2023-07-30T02:39:47;16.20;99.99
64858;SHT30;51335;51.148;6.950;2023-07-30T02:40:18;16.16;99.99
64858;SHT30;51335;51.148;6.950;2023-07-30T02:40:48;16.14;99.99
64858;SHT30;51335;51.148;6.950;2023-07-30T02:41:18;16.13;99.99
64858;SHT30;51335;51.148;6.950;2023-07-30T02:41:49;16.10;99.99
64858;SHT30;51335;51.148;6.950;2023-07-30T02:42:19;16.10;99.99
64858;SHT30;51335;51.148;6.950;2023-07-30T02:42:49;16.10;99.99
64858;SHT30;51335;51.148;6.950;2023-07-30T02:43:20;16.07;99.99
64858;SHT30;51335;51.148;6.950;2023-07-30T02:43:50;16.07;99.99
64858;SHT30;51335;51.148;6.950;2023-07-30T02:44:20;16.06;99.99
64858;SHT30;51335;51.148;6.950;2023-07-30T02:44:50;16.04;99.99
64858;SHT30;51335;51.148;6.950;2023-07-30T02:45:21;16.04;99.99
64858;SHT30;51335;51.148;6.950;2023-07-30T02:45:51;16.07;99.99
64858;SHT30;51335;51.148;6.950;2023-07-30T02:46:21;16.04;99.99
64858;SHT30;51335;51.148;6.950;2023-07-30T02:46:51;16.09;99.99
64858;SHT30;51335;51.148;6.950;2023-07-30T02:47:22;16.07;99.99
64858;SHT30;51335;51.148;6.950;2023-07-30T02:47:52;16.06;99.99
64858;SHT30;51335;51.148;6.950;2023-07-30T02:48:22;16.10;99.99
64858;SHT30;51335;51.148;6.950;2023-07-30T02:48:53;16.09;99.99
64858;SHT30;51335;51.148;6.950;2023-07-30T02:49:23;16.04;99.99
64858;SHT30;51335;51.148;6.950;2023-07-30T02:49:53;16.07;99.99
64858;SHT30;51335;51.148;6.950;2023-07-30T02:50:24;16.04;99.99
64858;SHT30;51335;51.148;6.950;2023-07-30T02:50:54;16.04;99.99
64858;SHT30;51335;51.148;6.950;2023-07-30T02:51:24;16.06;99.99
64858;SHT30;51335;51.148;6.950;2023-07-30T02:51:54;16.03;99.99
64858;SHT30;51335;51.148;6.950;2023-07-30T02:52:25;16.03;99.99
64858;SHT30;51335;51.148;6.950;2023-07-30T02:52:55;16.06;99.99
64858;SHT30;51335;51.148;6.950;2023-07-30T02:53:25;16.03;99.99
64858;SHT30;51335;51.148;6.950;2023-07-30T02:53:59;16.04;99.99
64858;SHT30;51335;51.148;6.950;2023-07-30T02:54:33;16.03;99.99
64858;SHT30;51335;51.148;6.950;2023-07-30T02:55:04;16.06;99.99
64858;SHT30;51335;51.148;6.950;2023-07-30T02:55:34;16.03;99.99
64858;SHT30;51335;51.148;6.950;2023-07-30T02:56:04;16.03;99.99
64858;SHT30;51335;51.148;6.950;2023-07-30T02:56:35;16.09;99.99
64858;SHT30;51335;51.148;6.950;2023-07-30T02:57:05;16.09;99.99
64858;SHT30;51335;51.148;6.950;2023-07-30T02:57:35;16.09;99.99
64858;SHT30;51335;51.148;6.950;2023-07-30T02:58:05;16.06;99.99
64858;SHT30;51335;51.148;6.950;2023-07-30T02:58:36;16.06;99.99
64858;SHT30;51335;51.148;6.950;2023-07-30T02:59:06;16.03;99.99
64858;SHT30;51335;51.148;6.950;2023-07-30T02:59:36;16.03;99.99
64858;SHT30;51335;51.148;6.950;2023-07-30T03:00:07;16.03;99.99
64858;SHT30;51335;51.148;6.950;2023-07-30T03:00:37;16.00;99.99
64858;SHT30;51335;51.148;6.950;2023-07-30T03:01:08;15.99;99.99
64858;SHT30;51335;51.148;6.950;2023-07-30T03:01:38;15.99;99.99
64858;SHT30;51335;51.148;6.950;2023-07-30T03:02:08;15.99;99.99
64858;SHT30;51335;51.148;6.950;2023-07-30T03:02:40;15.97;99.99
64858;SHT30;51335;51.148;6.950;2023-07-30T03:03:10;15.96;99.99
64858;SHT30;51335;51.148;6.950;2023-07-30T03:03:40;15.96;99.99
64858;SHT30;51335;51.148;6.950;2023-07-30T03:04:10;15.93;99.99
64858;SHT30;51335;51.148;6.950;2023-07-30T03:04:41;15.89;99.99
64858;SHT30;51335;51.148;6.950;2023-07-30T03:05:11;15.90;99.99
64858;SHT30;51335;51.148;6.950;2023-07-30T03:05:42;15.89;99.99
64858;SHT30;51335;51.148;6.950;2023-07-30T03:06:12;15.87;99.99
64858;SHT30;51335;51.148;6.950;2023-07-30T03:06:42;15.86;99.99
64858;SHT30;51335;51.148;6.950;2023-07-30T03:07:12;15.82;99.99
64858;SHT30;51335;51.148;6.950;2023-07-30T03:07:43;15.86;99.99
64858;SHT30;51335;51.148;6.950;2023-07-30T03:08:13;15.85;99.99
64858;SHT30;51335;51.148;6.950;2023-07-30T03:08:43;15.82;99.99
64858;SHT30;51335;51.148;6.950;2023-07-30T03:09:13;15.79;99.99
64858;SHT30;51335;51.148;6.950;2023-07-30T03:09:44;15.74;99.99
64858;SHT30;51335;51.148;6.950;2023-07-30T03:10:14;15.76;99.99
64858;SHT30;51335;51.148;6.950;2023-07-30T03:10:44;15.78;99.99
64858;SHT30;51335;51.148;6.950;2023-07-30T03:11:15;15.73;99.99
64858;SHT30;51335;51.148;6.950;2023-07-30T03:11:45;15.74;99.99
64858;SHT30;51335;51.148;6.950;2023-07-30T03:12:15;15.69;99.99
64858;SHT30;51335;51.148;6.950;2023-07-30T03:12:46;15.65;99.99
64858;SHT30;51335;51.148;6.950;2023-07-30T03:13:16;15.63;99.99
64858;SHT30;51335;51.148;6.950;2023-07-30T03:13:46;15.62;99.99